createdAt,value
2022-09-23T00:01:15.727Z,100200.22
2022-09-23T00:03:46.553Z,100193.19
2022-09-23T00:06:16.516Z,100192.13
2022-09-23T00:08:44.903Z,100194.66
2022-09-23T00:11:14.949Z,100203.91
2022-09-23T00:13:44.638Z,100196.19
2022-09-23T00:16:15.582Z,100187.53
2022-09-23T00:18:44.636Z,100198.56
2022-09-23T00:21:14.371Z,100193.28
2022-09-23T00:23:43.790Z,100193.19
2022-09-23T00:26:13.751Z,100189.72
2022-09-23T00:28:41.406Z,100202.44
2022-09-23T00:31:10.857Z,100197.19
2022-09-23T00:33:40.393Z,100194.53
2022-09-23T00:36:11.914Z,100194.53
2022-09-23T00:38:40.112Z,100191.81
2022-09-23T00:41:07.870Z,100191.81
2022-09-23T00:43:41.046Z,100198.69
2022-09-23T00:46:10.593Z,100186.69
2022-09-23T00:48:42.061Z,100193.47
2022-09-23T00:51:17.699Z,100192.47
2022-09-23T00:53:46.701Z,100186.34
2022-09-23T00:56:15.744Z,100194.84
2022-09-23T00:58:48.148Z,100188.69
2022-09-23T01:01:15.831Z,100176.72
2022-09-23T01:03:46.258Z,100189.50
2022-09-23T01:06:15.201Z,100194.63
2022-09-23T01:08:45.291Z,100184.31
2022-09-23T01:11:27.964Z,100186.94
2022-09-23T01:14:07.179Z,100186.13
2022-09-23T01:16:41.026Z,100185.19
2022-09-23T01:19:25.330Z,100189.28
2022-09-23T01:22:04.868Z,100173.66
2022-09-23T01:24:59.356Z,100172.53
2022-09-23T01:27:42.684Z,100175.03
2022-09-23T01:30:17.795Z,100176.69
2022-09-23T01:32:57.276Z,100174.03
2022-09-23T01:35:30.252Z,100169.69
2022-09-23T01:38:08.697Z,100172.19
2022-09-23T01:40:46.379Z,100164.41
2022-09-23T01:43:21.083Z,100163.50
2022-09-23T01:45:54.404Z,100167.56
2022-09-23T01:48:27.292Z,100174.34
2022-09-23T01:50:58.984Z,100167.34
2022-09-23T01:53:32.883Z,100161.16
2022-09-23T01:56:05.137Z,100165.22
2022-09-23T01:58:39.012Z,100161.44
2022-09-23T02:01:08.721Z,100163.09
2022-09-23T02:03:44.879Z,100159.59
2022-09-23T02:06:17.052Z,100152.72
2022-09-23T02:08:50.102Z,100157.78
2022-09-23T02:11:18.274Z,100159.47
2022-09-23T02:13:51.221Z,100167.97
2022-09-23T02:16:26.230Z,100165.41
2022-09-23T02:19:00.248Z,100157.78
2022-09-23T02:21:33.770Z,100159.59
2022-09-23T02:24:03.345Z,100161.34
2022-09-23T02:26:35.495Z,100159.72
2022-09-23T02:29:17.011Z,100151.97
2022-09-23T02:31:48.630Z,100158.66
2022-09-23T02:34:23.260Z,100154.09
2022-09-23T02:37:04.509Z,100155.50
2022-09-23T02:39:42.703Z,100152.84
2022-09-23T02:42:15.768Z,100148.47
2022-09-23T02:44:43.564Z,100154.28
2022-09-23T02:47:11.502Z,100155.06
2022-09-23T02:49:40.483Z,100145.66
2022-09-23T02:52:09.200Z,100143.84
2022-09-23T02:54:38.204Z,100140.22
2022-09-23T02:57:08.088Z,100139.38
2022-09-23T02:59:37.819Z,100137.59
2022-09-23T03:02:26.478Z,100131.59
2022-09-23T03:05:05.084Z,100129.13
2022-09-23T03:07:42.779Z,100126.56
2022-09-23T03:10:20.065Z,100135.13
2022-09-23T03:12:59.419Z,100131.59
2022-09-23T03:15:36.381Z,100128.97
2022-09-23T03:18:11.986Z,100132.34
2022-09-23T03:20:46.197Z,100132.34
2022-09-23T03:23:17.564Z,100125.50
2022-09-23T03:25:49.091Z,100131.44
2022-09-23T03:28:18.425Z,100128.72
2022-09-23T03:30:46.815Z,100128.72
2022-09-23T03:33:16.783Z,100121.88
2022-09-23T03:36:10.602Z,100127.91
2022-09-23T03:38:42.436Z,100118.50
2022-09-23T03:41:12.845Z,100122.69
2022-09-23T03:43:40.970Z,100120.13
2022-09-23T03:46:09.071Z,100120.13
2022-09-23T03:48:36.656Z,100118.34
2022-09-23T03:51:20.565Z,100121.88
2022-09-23T03:53:48.200Z,100120.13
2022-09-23T03:56:15.796Z,100121.88
2022-09-23T03:58:43.956Z,100119.22
2022-09-23T04:01:11.604Z,100121.78
2022-09-23T04:03:39.224Z,100131.16
2022-09-23T04:06:08.548Z,100128.47
2022-09-23T04:08:36.125Z,100122.53
2022-09-23T04:11:04.633Z,100121.63
2022-09-23T04:13:32.637Z,100129.22
2022-09-23T04:16:00.292Z,100122.34
2022-09-23T04:18:27.889Z,100121.47
2022-09-23T04:20:59.409Z,100122.22
2022-09-23T04:23:28.464Z,100125.53
2022-09-23T04:25:56.138Z,100118.63
2022-09-23T04:28:23.739Z,100116.63
2022-09-23T04:30:51.291Z,100125.06
2022-09-23T04:33:18.857Z,100113.81
2022-09-23T04:35:51.216Z,100124.06
2022-09-23T04:38:19.651Z,100117.06
2022-09-23T04:40:49.102Z,100112.91
2022-09-23T04:43:17.472Z,100120.88
2022-09-23T04:45:45.565Z,100115.25
2022-09-23T04:48:13.824Z,100123.03
2022-09-23T04:50:41.464Z,100126.41
2022-09-23T04:53:09.051Z,100124.59
2022-09-23T04:55:36.605Z,100128.69
2022-09-23T04:58:05.496Z,100124.31
2022-09-23T05:00:33.435Z,100132.69
2022-09-23T05:03:00.994Z,100130.81
2022-09-23T05:05:29.647Z,100139.28
2022-09-23T05:07:57.835Z,100128.91
2022-09-23T05:10:25.350Z,100137.50
2022-09-23T05:12:57.100Z,100129.78
2022-09-23T05:15:26.476Z,100134.03
2022-09-23T05:17:54.004Z,100139.03
2022-09-23T05:20:21.529Z,100136.53
2022-09-23T05:22:49.028Z,100133.91
2022-09-23T05:25:16.851Z,100137.41
2022-09-23T05:27:44.371Z,100137.50
2022-09-23T05:30:12.377Z,100132.69
2022-09-23T05:32:41.253Z,100137.19
2022-09-23T05:35:09.500Z,100131.31
2022-09-23T05:37:37.160Z,100143.44
2022-09-23T05:40:05.375Z,100155.56
2022-09-23T05:42:32.897Z,100147.22
2022-09-23T05:45:00.377Z,100142.09
2022-09-23T05:47:27.889Z,100143.94
2022-09-23T05:49:59.942Z,100148.44
2022-09-23T05:52:28.236Z,100152.84
2022-09-23T05:54:55.725Z,100153.09
2022-09-23T05:57:23.286Z,100146.47
2022-09-23T05:59:50.858Z,100149.97
2022-09-23T06:02:18.430Z,100146.84
2022-09-23T06:04:46.032Z,100156.59
2022-09-23T06:07:14.854Z,100147.34
2022-09-23T06:09:42.777Z,100152.03
2022-09-23T06:12:10.244Z,100144.47
2022-09-23T06:14:38.328Z,100149.06
2022-09-23T06:17:05.858Z,100151.97
2022-09-23T06:19:33.421Z,100148.81
2022-09-23T06:22:01.545Z,100149.03
2022-09-23T06:24:31.718Z,100147.81
2022-09-23T06:26:59.386Z,100146.38
2022-09-23T06:29:26.904Z,100141.63
2022-09-23T06:31:54.634Z,100143.72
2022-09-23T06:34:22.212Z,100138.19
2022-09-23T06:36:51.476Z,100139.47
2022-09-23T06:39:18.959Z,100133.09
2022-09-23T06:41:48.044Z,100132.72
2022-09-23T06:44:16.152Z,100134.13
2022-09-23T06:46:44.286Z,100137.22
2022-09-23T06:49:12.839Z,100131.03
2022-09-23T06:51:40.995Z,100128.94
2022-09-23T06:54:08.920Z,100130.97
2022-09-23T06:56:39.528Z,100134.56
2022-09-23T06:59:12.980Z,100140.75
2022-09-23T07:01:40.608Z,100148.69
2022-09-23T07:04:10.074Z,100152.41
2022-09-23T07:06:37.950Z,100144.03
2022-09-23T07:09:07.068Z,100144.31
2022-09-23T07:11:34.635Z,100143.63
2022-09-23T07:14:02.185Z,100151.69
2022-09-23T07:16:31.493Z,100150.28
2022-09-23T07:18:59.292Z,100148.84
2022-09-23T07:21:27.788Z,100152.63
2022-09-23T07:23:57.892Z,100152.06
2022-09-23T07:26:26.527Z,100145.38
2022-09-23T07:28:56.590Z,100142.22
2022-09-23T07:31:37.401Z,100148.34
2022-09-23T07:34:11.626Z,100147.63
2022-09-23T07:36:41.934Z,100156.41
2022-09-23T07:39:11.000Z,100155.66
2022-09-23T07:41:39.145Z,100153.22
2022-09-23T07:44:06.699Z,100145.91
2022-09-23T07:46:36.911Z,100151.31
2022-09-23T07:49:05.541Z,100151.56
2022-09-23T07:51:38.119Z,100150.16
2022-09-23T07:54:08.613Z,100152.97
2022-09-23T07:56:38.314Z,100155.84
2022-09-23T07:59:08.554Z,100163.13
2022-09-23T08:01:38.890Z,100168.47
2022-09-23T08:04:11.205Z,100161.84
2022-09-23T08:06:43.407Z,100169.72
2022-09-23T08:09:11.464Z,100164.81
2022-09-23T08:11:39.325Z,100162.44
2022-09-23T08:14:08.538Z,100169.50
2022-09-23T08:16:37.051Z,100165.44
2022-09-23T08:21:33.673Z,100162.22
2022-09-23T08:24:02.979Z,100170.06
2022-09-23T08:26:31.441Z,100166.06
2022-09-23T08:28:58.928Z,100169.56
2022-09-23T08:31:26.736Z,100162.00
2022-09-23T08:33:56.557Z,100167.44
2022-09-23T08:36:24.309Z,100165.25
2022-09-23T08:38:51.933Z,100172.53
2022-09-23T08:41:31.192Z,100163.22
2022-09-23T08:44:04.784Z,100168.66
2022-09-23T08:46:37.536Z,100160.28
2022-09-23T08:49:07.619Z,100162.16
2022-09-23T08:51:42.345Z,100165.69
2022-09-23T08:54:11.083Z,100165.78
2022-09-23T08:56:40.783Z,100159.22
2022-09-23T08:59:15.206Z,100160.22
2022-09-23T09:01:45.712Z,100164.69
2022-09-23T09:04:18.281Z,100158.91
2022-09-23T09:06:53.893Z,100160.06
2022-09-23T09:09:26.593Z,100151.63
2022-09-23T09:12:01.127Z,100162.09
2022-09-23T09:14:36.717Z,100156.19
2022-09-23T09:17:08.016Z,100151.97
2022-09-23T09:20:05.242Z,100148.69
2022-09-23T09:22:44.597Z,100143.56
2022-09-23T09:25:23.799Z,100137.63
2022-09-23T09:27:54.150Z,100142.03
2022-09-23T09:30:21.757Z,100129.13
2022-09-23T09:32:56.573Z,100133.44
2022-09-23T09:35:34.976Z,100131.84
2022-09-23T09:38:02.750Z,100134.47
2022-09-23T09:40:30.882Z,100127.59
2022-09-23T09:42:59.848Z,100123.28
2022-09-23T09:45:42.632Z,100120.66
2022-09-23T09:48:17.577Z,100119.84
2022-09-23T09:50:49.028Z,100119.84
2022-09-23T09:53:22.281Z,100112.03
2022-09-23T09:56:04.356Z,100102.47
2022-09-23T09:58:41.551Z,100099.03
2022-09-23T10:01:09.464Z,100104.22
2022-09-23T10:03:42.117Z,100096.38
2022-09-23T10:06:18.776Z,100096.41
2022-09-23T10:09:05.747Z,100093.66
2022-09-23T10:11:34.090Z,100091.88
2022-09-23T10:14:09.245Z,100095.16
2022-09-23T10:16:37.111Z,100095.97
2022-09-23T10:19:13.153Z,100091.59
2022-09-23T10:21:42.147Z,100095.69
2022-09-23T10:24:22.501Z,100090.28
2022-09-23T10:26:55.885Z,100090.38
2022-09-23T10:29:29.687Z,100084.59
2022-09-23T10:32:22.864Z,100077.78
2022-09-23T10:34:54.071Z,100075.97
2022-09-23T10:37:30.650Z,100074.16
2022-09-23T10:40:16.293Z,100077.44
2022-09-23T10:43:20.394Z,100066.94
2022-09-23T10:46:08.152Z,100066.63
2022-09-23T10:48:46.858Z,100070.03
2022-09-23T10:51:25.994Z,100057.75
2022-09-23T10:54:03.939Z,100054.41
2022-09-23T10:56:36.914Z,100055.19
2022-09-23T10:59:33.498Z,100046.28
2022-09-23T11:02:21.338Z,100047.38
2022-09-23T11:05:06.528Z,100047.66
2022-09-23T11:07:39.789Z,100036.59
2022-09-23T11:10:44.851Z,100041.88
2022-09-23T11:13:25.189Z,100038.03
2022-09-23T11:16:01.811Z,100051.50
2022-09-23T11:18:45.605Z,100048.63
2022-09-23T11:21:31.091Z,100035.22
2022-09-23T11:24:18.638Z,100044.91
2022-09-23T11:26:56.435Z,100043.88
2022-09-23T11:29:53.479Z,100030.63
2022-09-23T11:32:41.108Z,100033.69
2022-09-23T11:35:17.665Z,100028.94
2022-09-23T11:37:49.812Z,100030.47
2022-09-23T11:40:22.591Z,100026.19
2022-09-23T11:42:56.094Z,100021.63
2022-09-23T11:45:27.794Z,100016.84
2022-09-23T11:47:58.400Z,100018.56
2022-09-23T11:50:33.888Z,100005.19
2022-09-23T11:53:05.777Z,100003.72
2022-09-23T11:55:50.418Z,100005.06
2022-09-23T11:58:27.124Z,100002.28
2022-09-23T12:01:01.395Z,99988.50
2022-09-23T12:03:44.377Z,99998.59
2022-09-23T12:06:18.594Z,99999.16
2022-09-23T12:08:46.369Z,99995.13
2022-09-23T12:11:25.349Z,99982.91
2022-09-23T12:14:02.861Z,99981.72
2022-09-23T12:16:48.530Z,99978.72
2022-09-23T12:19:36.790Z,99974.59
2022-09-23T12:22:30.267Z,99973.59
2022-09-23T12:25:00.352Z,99974.56
2022-09-23T12:27:37.053Z,99974.09
2022-09-23T12:30:07.796Z,99974.38
2022-09-23T12:32:35.454Z,99964.84
2022-09-23T12:35:03.435Z,99961.91
2022-09-23T12:37:35.472Z,99969.00
2022-09-23T12:40:10.513Z,99962.97
2022-09-23T12:42:44.717Z,99969.31
2022-09-23T12:45:35.018Z,99967.28
2022-09-23T12:48:04.211Z,99958.16
2022-09-23T12:50:49.121Z,99959.81
2022-09-23T12:53:52.892Z,99960.25
2022-09-23T12:56:24.373Z,99960.94
2022-09-23T12:59:13.881Z,99966.41
2022-09-23T13:01:42.143Z,99956.84
2022-09-23T13:04:52.680Z,99952.75
2022-09-23T13:07:25.423Z,99953.69
2022-09-23T13:09:58.105Z,99953.13
2022-09-23T13:12:33.466Z,99960.69
2022-09-23T13:15:06.209Z,99947.06
2022-09-23T13:17:37.294Z,99949.97
2022-09-23T13:20:26.439Z,99942.50
2022-09-23T13:23:21.323Z,99942.50
2022-09-23T13:25:51.097Z,99930.50
2022-09-23T13:28:36.777Z,99933.38
2022-09-23T13:31:06.327Z,99935.31
2022-09-23T13:33:42.823Z,99926.38
2022-09-23T13:36:16.316Z,99922.66
2022-09-23T13:38:46.512Z,99923.13
2022-09-23T13:41:16.924Z,99925.56
2022-09-23T13:43:48.955Z,99918.94
2022-09-23T13:46:19.772Z,99924.75
2022-09-23T13:48:49.750Z,99928.78
2022-09-23T13:51:24.489Z,99917.78
2022-09-23T13:53:56.613Z,99917.31
2022-09-23T13:56:25.606Z,99915.03
2022-09-23T13:58:56.562Z,99909.97
2022-09-23T14:01:30.909Z,99904.78
2022-09-23T14:03:59.012Z,99908.84
2022-09-23T14:06:28.076Z,99897.78
2022-09-23T14:08:56.475Z,99901.97
2022-09-23T14:11:30.532Z,99892.78
2022-09-23T14:14:07.736Z,99883.97
2022-09-23T14:16:38.931Z,99887.22
2022-09-23T14:19:07.929Z,99872.69
2022-09-23T14:21:37.412Z,99876.44
2022-09-23T14:24:16.629Z,99880.03
2022-09-23T14:26:47.216Z,99868.28
2022-09-23T14:29:18.528Z,99867.59
2022-09-23T14:31:56.586Z,99864.16
2022-09-23T14:34:49.951Z,99865.13
2022-09-23T14:37:48.468Z,99871.19
2022-09-23T14:40:18.509Z,99866.59
2022-09-23T14:42:48.770Z,99871.84
2022-09-23T14:45:21.404Z,99862.00
2022-09-23T14:47:52.142Z,99860.66
2022-09-23T14:50:39.260Z,99862.50
2022-09-23T14:53:37.668Z,99861.94
2022-09-23T14:56:15.620Z,99865.56
2022-09-23T14:58:50.974Z,99862.59
2022-09-23T15:01:42.193Z,99857.31
2022-09-23T15:04:31.274Z,99851.03
2022-09-23T15:07:03.272Z,99864.50
2022-09-23T15:09:34.274Z,99855.94
2022-09-23T15:12:06.413Z,99852.84
2022-09-23T15:14:41.226Z,99863.25
2022-09-23T15:17:32.551Z,99855.56
2022-09-23T15:20:02.996Z,99863.78
2022-09-23T15:22:30.510Z,99860.56
2022-09-23T15:25:16.067Z,99859.03
2022-09-23T15:27:57.333Z,99860.63
2022-09-23T15:30:25.241Z,99861.00
2022-09-23T15:32:54.135Z,99862.97
2022-09-23T15:35:25.507Z,99864.81
2022-09-23T15:37:57.120Z,99855.34
2022-09-23T15:40:27.261Z,99849.28
2022-09-23T15:42:56.733Z,99849.47
2022-09-23T15:45:31.067Z,99855.09
2022-09-23T15:48:07.071Z,99855.25
2022-09-23T15:50:35.419Z,99853.06
2022-09-23T15:53:03.024Z,99845.38
2022-09-23T15:55:31.504Z,99836.75
2022-09-23T15:57:59.044Z,99835.13
2022-09-23T16:00:26.656Z,99839.53
2022-09-23T16:02:55.115Z,99843.06
2022-09-23T16:05:33.369Z,99844.09
2022-09-23T16:08:04.900Z,99835.50
2022-09-23T16:10:35.994Z,99838.28
2022-09-23T16:13:05.801Z,99842.78
2022-09-23T16:15:34.422Z,99839.63
2022-09-23T16:18:02.298Z,99834.50
2022-09-23T16:20:31.400Z,99831.25
2022-09-23T16:23:00.721Z,99841.03
2022-09-23T16:25:31.833Z,99835.19
2022-09-23T16:27:59.542Z,99833.75
2022-09-23T16:30:29.417Z,99835.56
2022-09-23T16:32:57.245Z,99831.16
2022-09-23T16:35:27.837Z,99828.59
2022-09-23T16:37:57.087Z,99821.78
2022-09-23T16:40:25.659Z,99820.25
2022-09-23T16:42:54.795Z,99813.56
2022-09-23T16:45:23.281Z,99812.72
2022-09-23T16:47:52.344Z,99818.91
2022-09-23T16:50:22.534Z,99825.09
2022-09-23T16:52:52.218Z,99822.56
2022-09-23T16:55:21.868Z,99830.47
2022-09-23T16:57:49.469Z,99832.47
2022-09-23T17:00:35.081Z,99833.34
2022-09-23T17:03:20.659Z,99833.41
2022-09-23T17:05:49.233Z,99836.94
2022-09-23T17:08:18.188Z,99842.22
2022-09-23T17:10:56.981Z,99841.44
2022-09-23T17:13:25.349Z,99837.19
2022-09-23T17:15:53.200Z,99835.47
2022-09-23T17:18:21.603Z,99832.91
2022-09-23T17:21:02.689Z,99835.56
2022-09-23T17:23:31.853Z,99833.84
2022-09-23T17:26:01.099Z,99829.53
2022-09-23T17:28:29.128Z,99825.22
2022-09-23T17:30:58.670Z,99826.97
2022-09-23T17:33:26.931Z,99821.75
2022-09-23T17:35:54.730Z,99821.78
2022-09-23T17:38:27.998Z,99827.84
2022-09-23T17:41:00.986Z,99824.41
2022-09-23T17:43:31.357Z,99820.03
2022-09-23T17:46:06.092Z,99820.91
2022-09-23T17:48:35.740Z,99826.97
2022-09-23T17:51:05.576Z,99832.16
2022-09-23T17:53:35.010Z,99828.69
2022-09-23T17:56:06.059Z,99831.22
2022-09-23T17:58:36.831Z,99828.59
2022-09-23T18:01:05.385Z,99833.75
2022-09-23T18:03:33.099Z,99825.91
2022-09-23T18:06:08.761Z,99814.66
2022-09-23T18:08:36.450Z,99814.66
2022-09-23T18:11:12.402Z,99822.38
2022-09-23T18:13:41.572Z,99828.44
2022-09-23T18:16:09.360Z,99825.81
2022-09-23T18:18:37.044Z,99824.94
2022-09-23T18:21:05.915Z,99818.88
2022-09-23T18:23:34.361Z,99809.31
2022-09-23T18:26:01.950Z,99810.19
2022-09-23T18:28:34.644Z,99802.41
2022-09-23T18:31:04.051Z,99804.13
2022-09-23T18:33:31.699Z,99810.19
2022-09-23T18:36:00.155Z,99818.72
2022-09-23T18:38:27.727Z,99817.91
2022-09-23T18:40:57.662Z,99813.59
2022-09-23T18:43:29.520Z,99819.59
2022-09-23T18:46:01.990Z,99821.28
2022-09-23T18:48:49.746Z,99820.44
2022-09-23T18:51:18.772Z,99815.19
2022-09-23T18:53:47.895Z,99816.03
2022-09-23T18:56:19.083Z,99814.25
2022-09-23T18:58:47.617Z,99821.16
2022-09-23T19:01:16.387Z,99819.44
2022-09-23T19:03:45.497Z,99815.97
2022-09-23T19:06:19.308Z,99815.03
2022-09-23T19:08:51.194Z,99807.25
2022-09-23T19:11:19.498Z,99804.59
2022-09-23T19:13:47.592Z,99807.16
2022-09-23T19:16:16.812Z,99807.94
2022-09-23T19:18:46.567Z,99810.53
2022-09-23T19:21:15.854Z,99812.25
2022-09-23T19:23:47.947Z,99812.22
2022-09-23T19:26:17.774Z,99809.56
2022-09-23T19:28:49.773Z,99814.66
2022-09-23T19:35:18.296Z,99811.16
2022-09-23T19:37:49.200Z,99810.25
2022-09-23T19:40:17.051Z,99810.19
2022-09-23T19:42:44.660Z,99813.66
2022-09-23T19:45:12.220Z,99805.78
2022-09-23T19:47:39.789Z,99795.44
2022-09-23T19:50:07.915Z,99800.63
2022-09-23T19:52:37.688Z,99803.16
2022-09-23T19:55:06.520Z,99806.56
2022-09-23T19:57:34.294Z,99804.00
2022-09-23T20:00:02.326Z,99797.06
2022-09-23T20:02:39.845Z,99797.88
2022-09-23T20:05:10.773Z,99787.41
2022-09-23T20:07:42.324Z,99785.66
2022-09-23T20:10:11.243Z,99787.38
2022-09-23T20:12:42.092Z,99794.25
2022-09-23T20:15:10.909Z,99795.97
2022-09-23T20:17:39.917Z,99802.88
2022-09-23T20:20:08.843Z,99803.69
2022-09-23T20:22:36.425Z,99800.19
2022-09-23T20:25:07.269Z,99800.94
2022-09-23T20:27:34.785Z,99794.88
2022-09-23T20:30:03.056Z,99802.63
2022-09-23T20:32:30.726Z,99803.47
2022-09-23T20:34:58.273Z,99793.13
2022-09-23T20:37:25.914Z,99792.19
2022-09-23T20:39:53.563Z,99778.31
2022-09-23T20:42:22.424Z,99775.69
2022-09-23T20:44:49.951Z,99782.53
2022-09-23T20:47:18.744Z,99776.50
2022-09-23T20:49:48.747Z,99779.94
2022-09-23T20:52:20.154Z,99771.28
2022-09-23T20:54:51.497Z,99761.75
2022-09-23T20:57:20.860Z,99766.00
2022-09-23T20:59:49.882Z,99769.44
2022-09-23T21:02:17.600Z,99758.22
2022-09-23T21:04:45.257Z,99766.72
2022-09-23T21:07:12.749Z,99771.88
2022-09-23T21:09:40.278Z,99771.00
2022-09-23T21:12:07.859Z,99777.03
2022-09-23T21:14:35.445Z,99783.06
2022-09-23T21:17:04.298Z,99788.22
2022-09-23T21:19:35.078Z,99783.84
2022-09-23T21:22:02.564Z,99788.16
2022-09-23T21:27:17.589Z,99786.28
2022-09-23T21:29:45.141Z,99785.34
2022-09-23T21:32:14.008Z,99793.00
2022-09-23T21:34:41.547Z,99793.06
2022-09-23T21:37:09.033Z,99789.63
2022-09-23T21:39:36.568Z,99786.13
2022-09-23T21:42:04.333Z,99780.06
2022-09-23T21:44:31.877Z,99795.53
2022-09-23T21:46:59.480Z,99792.03
2022-09-23T21:49:28.457Z,99792.00
2022-09-23T21:51:58.841Z,99796.25
2022-09-23T21:54:26.583Z,99786.78
2022-09-23T21:56:54.225Z,99788.47
2022-09-23T21:59:21.782Z,99798.72
2022-09-23T22:01:54.007Z,99792.63
2022-09-23T22:04:22.107Z,99792.63
2022-09-23T22:06:51.029Z,99789.16
2022-09-23T22:09:20.288Z,99789.16
2022-09-23T22:12:08.488Z,99784.00
2022-09-23T22:14:36.758Z,99792.59
2022-09-23T22:17:05.639Z,99782.22
2022-09-23T22:19:39.377Z,99790.81
2022-09-23T22:22:14.388Z,99785.66
2022-09-23T22:24:42.589Z,99784.81
2022-09-23T22:27:11.333Z,99782.22
2022-09-23T22:29:56.229Z,99783.91
2022-09-23T22:32:43.213Z,99776.13
2022-09-23T22:35:12.686Z,99778.75
2022-09-23T22:37:41.597Z,99779.63
2022-09-23T22:40:11.367Z,99778.69
2022-09-23T22:42:41.458Z,99773.53
2022-09-23T22:45:10.797Z,99771.81
2022-09-23T22:47:40.576Z,99767.50
2022-09-23T22:50:10.029Z,99763.22
2022-09-23T22:52:37.741Z,99770.06
2022-09-23T22:55:07.916Z,99759.75
2022-09-23T22:57:36.355Z,99760.63
2022-09-23T23:00:04.072Z,99758.06
2022-09-23T23:02:31.793Z,99760.63
2022-09-23T23:05:00.229Z,99757.19
2022-09-23T23:07:27.729Z,99751.97
2022-09-23T23:09:55.491Z,99747.66
2022-09-23T23:12:24.340Z,99745.00
2022-09-23T23:14:51.844Z,99745.88
2022-09-23T23:17:19.487Z,99750.16
2022-09-23T23:19:47.932Z,99738.97
2022-09-23T23:22:15.437Z,99742.41
2022-09-23T23:24:43.020Z,99738.97
2022-09-23T23:27:10.584Z,99732.13
2022-09-23T23:29:39.410Z,99730.44
2022-09-23T23:32:07.569Z,99738.22
2022-09-23T23:34:35.090Z,99737.34
2022-09-23T23:37:02.591Z,99734.78
2022-09-23T23:39:30.141Z,99742.56
2022-09-23T23:41:58.900Z,99738.25
2022-09-23T23:44:27.677Z,99730.47
2022-09-23T23:46:56.594Z,99727.06
2022-09-23T23:49:24.153Z,99731.31
2022-09-23T23:51:52.043Z,99713.28
2022-09-23T23:54:19.546Z,99715.00
2022-09-23T23:56:47.237Z,99711.53
2022-09-23T23:59:14.889Z,99709.84
